sensor_id;sensor_type;location;lat;lon;timestamp;P1;durP1;ratioP1;P2;durP2;ratioP2
483;SDS011;228;48.922;12.198;2022-11-21T00:00:52;4.87;;;2.10;;
483;SDS011;228;48.922;12.198;2022-11-21T00:03:19;2.50;;;2.23;;
483;SDS011;228;48.922;12.198;2022-11-21T00:05:46;2.43;;;2.10;;
483;SDS011;228;48.922;12.198;2022-11-21T00:08:14;2.30;;;2.10;;
483;SDS011;228;48.922;12.198;2022-11-21T00:10:43;2.70;;;2.23;;
483;SDS011;228;48.922;12.198;2022-11-21T00:13:14;2.70;;;2.10;;
483;SDS011;228;48.922;12.198;2022-11-21T00:15:42;2.37;;;2.17;;
483;SDS011;228;48.922;12.198;2022-11-21T00:18:09;2.10;;;1.90;;
483;SDS011;228;48.922;12.198;2022-11-21T00:20:37;2.73;;;2.13;;
483;SDS011;228;48.922;12.198;2022-11-21T00:23:04;4.03;;;2.07;;
483;SDS011;228;48.922;12.198;2022-11-21T00:25:30;2.37;;;1.80;;
483;SDS011;228;48.922;12.198;2022-11-21T00:27:57;1.83;;;1.70;;
483;SDS011;228;48.922;12.198;2022-11-21T00:30:23;1.90;;;1.80;;
483;SDS011;228;48.922;12.198;2022-11-21T00:32:49;1.70;;;1.60;;
483;SDS011;228;48.922;12.198;2022-11-21T00:35:15;1.70;;;1.60;;
483;SDS011;228;48.922;12.198;2022-11-21T00:37:41;1.77;;;1.67;;
483;SDS011;228;48.922;12.198;2022-11-21T00:40:07;2.43;;;1.80;;
483;SDS011;228;48.922;12.198;2022-11-21T00:42:34;2.10;;;1.90;;
483;SDS011;228;48.922;12.198;2022-11-21T00:45:00;1.80;;;1.60;;
483;SDS011;228;48.922;12.198;2022-11-21T00:47:27;2.10;;;1.90;;
483;SDS011;228;48.922;12.198;2022-11-21T00:49:53;2.43;;;1.70;;
483;SDS011;228;48.922;12.198;2022-11-21T00:52:19;2.00;;;1.80;;
483;SDS011;228;48.922;12.198;2022-11-21T00:54:45;1.57;;;1.40;;
483;SDS011;228;48.922;12.198;2022-11-21T00:57:11;2.10;;;1.53;;
483;SDS011;228;48.922;12.198;2022-11-21T00:59:38;1.90;;;1.70;;
483;SDS011;228;48.922;12.198;2022-11-21T01:02:04;2.30;;;2.10;;
483;SDS011;228;48.922;12.198;2022-11-21T01:04:30;2.73;;;1.80;;
483;SDS011;228;48.922;12.198;2022-11-21T01:06:58;2.17;;;1.90;;
483;SDS011;228;48.922;12.198;2022-11-21T01:09:24;2.13;;;1.70;;
483;SDS011;228;48.922;12.198;2022-11-21T01:11:50;2.30;;;1.70;;
483;SDS011;228;48.922;12.198;2022-11-21T01:14:16;2.20;;;1.80;;
483;SDS011;228;48.922;12.198;2022-11-21T01:16:42;1.80;;;1.60;;
483;SDS011;228;48.922;12.198;2022-11-21T01:19:08;1.63;;;1.53;;
483;SDS011;228;48.922;12.198;2022-11-21T01:21:34;1.93;;;1.70;;
483;SDS011;228;48.922;12.198;2022-11-21T01:24:00;2.43;;;2.00;;
483;SDS011;228;48.922;12.198;2022-11-21T01:26:27;2.00;;;1.80;;
483;SDS011;228;48.922;12.198;2022-11-21T01:28:56;2.13;;;1.63;;
483;SDS011;228;48.922;12.198;2022-11-21T01:31:23;2.23;;;2.00;;
483;SDS011;228;48.922;12.198;2022-11-21T01:33:52;2.10;;;1.90;;
483;SDS011;228;48.922;12.198;2022-11-21T01:36:20;2.93;;;1.80;;
483;SDS011;228;48.922;12.198;2022-11-21T01:38:59;2.23;;;1.80;;
483;SDS011;228;48.922;12.198;2022-11-21T01:41:29;1.60;;;1.50;;
483;SDS011;228;48.922;12.198;2022-11-21T01:44:16;1.70;;;1.60;;
483;SDS011;228;48.922;12.198;2022-11-21T01:46:46;1.70;;;1.60;;
483;SDS011;228;48.922;12.198;2022-11-21T01:57:27;1.47;;;1.37;;
483;SDS011;228;48.922;12.198;2022-11-21T02:00:10;1.40;;;1.30;;
483;SDS011;228;48.922;12.198;2022-11-21T02:02:42;2.37;;;1.37;;
483;SDS011;228;48.922;12.198;2022-11-21T02:05:15;1.50;;;1.40;;
483;SDS011;228;48.922;12.198;2022-11-21T02:07:47;1.30;;;1.20;;
483;SDS011;228;48.922;12.198;2022-11-21T02:10:16;1.30;;;1.23;;
483;SDS011;228;48.922;12.198;2022-11-21T02:15:12;1.40;;;1.30;;
483;SDS011;228;48.922;12.198;2022-11-21T02:17:38;7.07;;;1.60;;
483;SDS011;228;48.922;12.198;2022-11-21T02:20:12;2.10;;;1.37;;
483;SDS011;228;48.922;12.198;2022-11-21T02:25:29;1.40;;;1.30;;
483;SDS011;228;48.922;12.198;2022-11-21T02:28:04;1.50;;;1.40;;
483;SDS011;228;48.922;12.198;2022-11-21T02:30:34;1.43;;;1.30;;
483;SDS011;228;48.922;12.198;2022-11-21T02:33:03;1.60;;;1.40;;
483;SDS011;228;48.922;12.198;2022-11-21T02:35:30;1.40;;;1.30;;
483;SDS011;228;48.922;12.198;2022-11-21T02:37:59;1.37;;;1.23;;
483;SDS011;228;48.922;12.198;2022-11-21T02:40:32;1.50;;;1.40;;
483;SDS011;228;48.922;12.198;2022-11-21T02:43:09;1.83;;;1.20;;
483;SDS011;228;48.922;12.198;2022-11-21T02:45:49;1.30;;;1.20;;
483;SDS011;228;48.922;12.198;2022-11-21T02:48:15;2.00;;;1.20;;
483;SDS011;228;48.922;12.198;2022-11-21T02:50:42;1.40;;;1.30;;
483;SDS011;228;48.922;12.198;2022-11-21T02:53:15;1.33;;;1.23;;
483;SDS011;228;48.922;12.198;2022-11-21T02:55:43;3.37;;;1.40;;
483;SDS011;228;48.922;12.198;2022-11-21T02:58:10;1.43;;;1.33;;
483;SDS011;228;48.922;12.198;2022-11-21T03:00:37;1.20;;;1.10;;
483;SDS011;228;48.922;12.198;2022-11-21T03:03:06;2.40;;;1.10;;
483;SDS011;228;48.922;12.198;2022-11-21T03:05:32;1.30;;;1.20;;
483;SDS011;228;48.922;12.198;2022-11-21T03:07:59;1.47;;;0.90;;
483;SDS011;228;48.922;12.198;2022-11-21T03:10:25;0.80;;;0.80;;
483;SDS011;228;48.922;12.198;2022-11-21T03:12:51;1.17;;;1.07;;
483;SDS011;228;48.922;12.198;2022-11-21T03:15:25;1.33;;;1.20;;
483;SDS011;228;48.922;12.198;2022-11-21T03:17:56;0.90;;;0.90;;
483;SDS011;228;48.922;12.198;2022-11-21T03:20:25;1.17;;;0.93;;
483;SDS011;228;48.922;12.198;2022-11-21T03:22:51;0.70;;;0.70;;
483;SDS011;228;48.922;12.198;2022-11-21T03:25:17;1.10;;;0.80;;
483;SDS011;228;48.922;12.198;2022-11-21T03:27:44;1.47;;;0.87;;
483;SDS011;228;48.922;12.198;2022-11-21T03:30:10;0.97;;;0.90;;
483;SDS011;228;48.922;12.198;2022-11-21T03:32:37;1.00;;;0.90;;
483;SDS011;228;48.922;12.198;2022-11-21T03:35:03;0.80;;;0.80;;
483;SDS011;228;48.922;12.198;2022-11-21T03:37:30;2.77;;;0.90;;
483;SDS011;228;48.922;12.198;2022-11-21T03:39:56;0.80;;;0.80;;
483;SDS011;228;48.922;12.198;2022-11-21T03:42:22;1.00;;;1.00;;
483;SDS011;228;48.922;12.198;2022-11-21T03:44:48;0.93;;;0.83;;
483;SDS011;228;48.922;12.198;2022-11-21T03:47:14;1.00;;;0.90;;
483;SDS011;228;48.922;12.198;2022-11-21T03:49:40;2.63;;;0.80;;
483;SDS011;228;48.922;12.198;2022-11-21T03:52:06;0.90;;;0.90;;
483;SDS011;228;48.922;12.198;2022-11-21T03:54:32;0.77;;;0.77;;
483;SDS011;228;48.922;12.198;2022-11-21T03:56:58;0.83;;;0.80;;
483;SDS011;228;48.922;12.198;2022-11-21T03:59:24;2.20;;;1.00;;
483;SDS011;228;48.922;12.198;2022-11-21T04:01:50;2.07;;;1.00;;
483;SDS011;228;48.922;12.198;2022-11-21T04:04:16;1.30;;;0.80;;
483;SDS011;228;48.922;12.198;2022-11-21T04:06:42;1.00;;;0.90;;
483;SDS011;228;48.922;12.198;2022-11-21T04:09:09;0.73;;;0.73;;
483;SDS011;228;48.922;12.198;2022-11-21T04:11:36;0.97;;;0.97;;
483;SDS011;228;48.922;12.198;2022-11-21T04:14:02;3.50;;;1.00;;
483;SDS011;228;48.922;12.198;2022-11-21T04:16:28;1.07;;;0.97;;
483;SDS011;228;48.922;12.198;2022-11-21T04:18:54;0.80;;;0.80;;
483;SDS011;228;48.922;12.198;2022-11-21T04:21:20;1.97;;;1.00;;
483;SDS011;228;48.922;12.198;2022-11-21T04:23:46;2.40;;;0.90;;
483;SDS011;228;48.922;12.198;2022-11-21T04:26:12;1.60;;;1.20;;
483;SDS011;228;48.922;12.198;2022-11-21T04:28:38;1.30;;;1.20;;
483;SDS011;228;48.922;12.198;2022-11-21T04:31:05;1.13;;;0.90;;
483;SDS011;228;48.922;12.198;2022-11-21T04:33:32;1.53;;;0.80;;
483;SDS011;228;48.922;12.198;2022-11-21T04:35:58;1.03;;;0.97;;
483;SDS011;228;48.922;12.198;2022-11-21T04:38:25;1.10;;;0.83;;
483;SDS011;228;48.922;12.198;2022-11-21T04:40:51;2.20;;;0.90;;
483;SDS011;228;48.922;12.198;2022-11-21T04:43:17;2.37;;;1.10;;
483;SDS011;228;48.922;12.198;2022-11-21T04:45:43;0.80;;;0.80;;
483;SDS011;228;48.922;12.198;2022-11-21T04:48:09;0.80;;;0.80;;
483;SDS011;228;48.922;12.198;2022-11-21T04:50:36;1.70;;;0.87;;
483;SDS011;228;48.922;12.198;2022-11-21T04:53:02;1.10;;;1.00;;
483;SDS011;228;48.922;12.198;2022-11-21T04:55:29;0.97;;;0.97;;
483;SDS011;228;48.922;12.198;2022-11-21T04:57:57;1.87;;;1.73;;
483;SDS011;228;48.922;12.198;2022-11-21T05:00:23;3.30;;;3.00;;
483;SDS011;228;48.922;12.198;2022-11-21T05:02:49;3.53;;;3.23;;
483;SDS011;228;48.922;12.198;2022-11-21T05:05:15;2.83;;;2.57;;
483;SDS011;228;48.922;12.198;2022-11-21T05:07:42;3.00;;;1.53;;
483;SDS011;228;48.922;12.198;2022-11-21T05:10:08;1.77;;;1.50;;
483;SDS011;228;48.922;12.198;2022-11-21T05:12:34;2.70;;;1.27;;
483;SDS011;228;48.922;12.198;2022-11-21T05:15:19;2.10;;;1.27;;
483;SDS011;228;48.922;12.198;2022-11-21T05:17:45;2.27;;;1.80;;
483;SDS011;228;48.922;12.198;2022-11-21T05:20:11;1.30;;;1.20;;
483;SDS011;228;48.922;12.198;2022-11-21T05:22:39;4.30;;;2.50;;
483;SDS011;228;48.922;12.198;2022-11-21T05:25:05;1.80;;;1.50;;
483;SDS011;228;48.922;12.198;2022-11-21T05:27:31;1.60;;;1.50;;
483;SDS011;228;48.922;12.198;2022-11-21T05:29:57;4.33;;;2.87;;
483;SDS011;228;48.922;12.198;2022-11-21T05:32:23;1.50;;;1.40;;
483;SDS011;228;48.922;12.198;2022-11-21T05:34:49;2.03;;;1.57;;
483;SDS011;228;48.922;12.198;2022-11-21T05:37:15;3.00;;;2.70;;
483;SDS011;228;48.922;12.198;2022-11-21T05:39:41;3.47;;;2.73;;
483;SDS011;228;48.922;12.198;2022-11-21T05:42:07;5.23;;;2.30;;
483;SDS011;228;48.922;12.198;2022-11-21T05:44:33;1.83;;;1.67;;
483;SDS011;228;48.922;12.198;2022-11-21T05:46:59;3.93;;;2.83;;
483;SDS011;228;48.922;12.198;2022-11-21T05:49:25;2.37;;;1.67;;
483;SDS011;228;48.922;12.198;2022-11-21T05:51:51;1.50;;;1.40;;
483;SDS011;228;48.922;12.198;2022-11-21T05:54:17;2.93;;;2.60;;
483;SDS011;228;48.922;12.198;2022-11-21T05:56:43;3.37;;;3.00;;
483;SDS011;228;48.922;12.198;2022-11-21T05:59:09;2.47;;;2.10;;
483;SDS011;228;48.922;12.198;2022-11-21T06:01:36;1.43;;;1.33;;
483;SDS011;228;48.922;12.198;2022-11-21T06:04:21;0.93;;;0.90;;
483;SDS011;228;48.922;12.198;2022-11-21T06:06:47;0.90;;;0.90;;
483;SDS011;228;48.922;12.198;2022-11-21T06:09:13;1.27;;;1.17;;
483;SDS011;228;48.922;12.198;2022-11-21T06:11:39;0.90;;;0.90;;
483;SDS011;228;48.922;12.198;2022-11-21T06:14:05;0.60;;;0.60;;
483;SDS011;228;48.922;12.198;2022-11-21T06:16:31;2.00;;;0.80;;
483;SDS011;228;48.922;12.198;2022-11-21T06:18:57;1.50;;;0.70;;
483;SDS011;228;48.922;12.198;2022-11-21T06:21:24;0.70;;;0.70;;
483;SDS011;228;48.922;12.198;2022-11-21T06:23:53;1.60;;;1.07;;
483;SDS011;228;48.922;12.198;2022-11-21T06:26:22;0.80;;;0.80;;
483;SDS011;228;48.922;12.198;2022-11-21T06:28:51;2.03;;;0.83;;
483;SDS011;228;48.922;12.198;2022-11-21T06:31:19;2.07;;;1.47;;
483;SDS011;228;48.922;12.198;2022-11-21T06:33:54;2.33;;;1.20;;
483;SDS011;228;48.922;12.198;2022-11-21T06:36:22;1.30;;;1.20;;
483;SDS011;228;48.922;12.198;2022-11-21T06:38:49;1.00;;;1.00;;
483;SDS011;228;48.922;12.198;2022-11-21T06:41:18;0.90;;;0.90;;
483;SDS011;228;48.922;12.198;2022-11-21T06:43:47;0.90;;;0.90;;
483;SDS011;228;48.922;12.198;2022-11-21T06:46:13;4.17;;;2.73;;
483;SDS011;228;48.922;12.198;2022-11-21T06:48:43;4.03;;;2.97;;
483;SDS011;228;48.922;12.198;2022-11-21T06:53:44;1.90;;;1.70;;
483;SDS011;228;48.922;12.198;2022-11-21T06:56:13;2.63;;;2.17;;
483;SDS011;228;48.922;12.198;2022-11-21T06:58:40;3.40;;;2.97;;
483;SDS011;228;48.922;12.198;2022-11-21T07:01:06;2.87;;;2.43;;
483;SDS011;228;48.922;12.198;2022-11-21T07:03:34;2.17;;;1.60;;
483;SDS011;228;48.922;12.198;2022-11-21T07:06:01;2.87;;;1.40;;
483;SDS011;228;48.922;12.198;2022-11-21T07:08:29;2.00;;;1.90;;
483;SDS011;228;48.922;12.198;2022-11-21T07:11:00;1.97;;;1.60;;
483;SDS011;228;48.922;12.198;2022-11-21T07:13:31;1.20;;;1.10;;
483;SDS011;228;48.922;12.198;2022-11-21T07:16:07;1.33;;;1.23;;
483;SDS011;228;48.922;12.198;2022-11-21T07:18:38;1.17;;;1.07;;
483;SDS011;228;48.922;12.198;2022-11-21T07:21:06;1.60;;;1.50;;
483;SDS011;228;48.922;12.198;2022-11-21T07:23:33;4.63;;;2.33;;
483;SDS011;228;48.922;12.198;2022-11-21T07:26:00;3.30;;;3.00;;
483;SDS011;228;48.922;12.198;2022-11-21T07:28:29;1.40;;;1.30;;
483;SDS011;228;48.922;12.198;2022-11-21T07:30:56;1.63;;;1.53;;
483;SDS011;228;48.922;12.198;2022-11-21T07:33:23;2.10;;;1.80;;
483;SDS011;228;48.922;12.198;2022-11-21T07:35:49;2.90;;;2.53;;
483;SDS011;228;48.922;12.198;2022-11-21T07:38:16;6.57;;;2.83;;
483;SDS011;228;48.922;12.198;2022-11-21T07:40:42;2.80;;;2.33;;
483;SDS011;228;48.922;12.198;2022-11-21T07:43:09;2.13;;;1.97;;
483;SDS011;228;48.922;12.198;2022-11-21T07:45:35;2.27;;;1.87;;
483;SDS011;228;48.922;12.198;2022-11-21T07:48:03;1.57;;;1.47;;
483;SDS011;228;48.922;12.198;2022-11-21T07:50:31;2.63;;;1.90;;
483;SDS011;228;48.922;12.198;2022-11-21T07:52:58;2.40;;;1.67;;
483;SDS011;228;48.922;12.198;2022-11-21T07:55:27;3.77;;;1.80;;
483;SDS011;228;48.922;12.198;2022-11-21T07:58:01;1.57;;;1.47;;
483;SDS011;228;48.922;12.198;2022-11-21T08:00:33;1.87;;;1.77;;
483;SDS011;228;48.922;12.198;2022-11-21T08:03:02;2.83;;;1.80;;
483;SDS011;228;48.922;12.198;2022-11-21T08:05:29;1.77;;;1.67;;
483;SDS011;228;48.922;12.198;2022-11-21T08:07:55;3.20;;;1.70;;
483;SDS011;228;48.922;12.198;2022-11-21T08:10:21;2.20;;;2.00;;
483;SDS011;228;48.922;12.198;2022-11-21T08:12:47;2.33;;;2.13;;
483;SDS011;228;48.922;12.198;2022-11-21T08:15:14;3.83;;;2.90;;
483;SDS011;228;48.922;12.198;2022-11-21T08:17:40;5.00;;;2.20;;
483;SDS011;228;48.922;12.198;2022-11-21T08:20:06;2.23;;;1.90;;
483;SDS011;228;48.922;12.198;2022-11-21T08:22:36;1.67;;;1.57;;
483;SDS011;228;48.922;12.198;2022-11-21T08:25:06;2.20;;;1.80;;
483;SDS011;228;48.922;12.198;2022-11-21T08:27:35;2.87;;;1.97;;
483;SDS011;228;48.922;12.198;2022-11-21T08:30:04;2.87;;;2.20;;
483;SDS011;228;48.922;12.198;2022-11-21T08:32:32;3.20;;;2.63;;
483;SDS011;228;48.922;12.198;2022-11-21T08:34:58;3.27;;;2.73;;
483;SDS011;228;48.922;12.198;2022-11-21T08:37:25;3.43;;;3.13;;
483;SDS011;228;48.922;12.198;2022-11-21T08:39:53;2.57;;;2.37;;
483;SDS011;228;48.922;12.198;2022-11-21T08:42:20;4.00;;;2.47;;
483;SDS011;228;48.922;12.198;2022-11-21T08:44:46;2.73;;;2.07;;
483;SDS011;228;48.922;12.198;2022-11-21T08:47:12;2.00;;;1.80;;
483;SDS011;228;48.922;12.198;2022-11-21T08:49:38;3.30;;;2.60;;
483;SDS011;228;48.922;12.198;2022-11-21T08:52:04;3.70;;;2.13;;
483;SDS011;228;48.922;12.198;2022-11-21T08:54:30;2.27;;;1.80;;
483;SDS011;228;48.922;12.198;2022-11-21T08:56:56;2.40;;;1.70;;
483;SDS011;228;48.922;12.198;2022-11-21T08:59:22;1.60;;;1.50;;
483;SDS011;228;48.922;12.198;2022-11-21T09:01:48;2.37;;;1.67;;
483;SDS011;228;48.922;12.198;2022-11-21T09:04:14;1.80;;;1.70;;
483;SDS011;228;48.922;12.198;2022-11-21T09:06:40;1.90;;;1.70;;
483;SDS011;228;48.922;12.198;2022-11-21T09:09:06;1.60;;;1.50;;
483;SDS011;228;48.922;12.198;2022-11-21T09:11:33;1.40;;;1.30;;
483;SDS011;228;48.922;12.198;2022-11-21T09:14:01;1.33;;;1.23;;
483;SDS011;228;48.922;12.198;2022-11-21T09:16:46;1.30;;;1.20;;
483;SDS011;228;48.922;12.198;2022-11-21T09:19:31;1.77;;;1.30;;
483;SDS011;228;48.922;12.198;2022-11-21T09:21:57;2.10;;;1.50;;
483;SDS011;228;48.922;12.198;2022-11-21T09:24:23;1.10;;;1.00;;
483;SDS011;228;48.922;12.198;2022-11-21T09:26:49;1.40;;;1.30;;
483;SDS011;228;48.922;12.198;2022-11-21T09:29:15;4.20;;;2.50;;
483;SDS011;228;48.922;12.198;2022-11-21T09:31:41;5.70;;;2.20;;
483;SDS011;228;48.922;12.198;2022-11-21T09:34:08;2.50;;;1.20;;
483;SDS011;228;48.922;12.198;2022-11-21T09:36:35;1.20;;;1.20;;
483;SDS011;228;48.922;12.198;2022-11-21T09:39:01;2.03;;;1.17;;
483;SDS011;228;48.922;12.198;2022-11-21T09:41:48;1.13;;;1.13;;
483;SDS011;228;48.922;12.198;2022-11-21T09:47:36;1.63;;;1.53;;
483;SDS011;228;48.922;12.198;2022-11-21T09:55:39;1.43;;;1.33;;
483;SDS011;228;48.922;12.198;2022-11-21T09:58:19;2.00;;;1.50;;
483;SDS011;228;48.922;12.198;2022-11-21T10:00:52;3.67;;;2.27;;
483;SDS011;228;48.922;12.198;2022-11-21T10:03:19;2.50;;;1.73;;
483;SDS011;228;48.922;12.198;2022-11-21T10:05:53;2.87;;;2.30;;
483;SDS011;228;48.922;12.198;2022-11-21T10:16:51;2.67;;;1.60;;
483;SDS011;228;48.922;12.198;2022-11-21T10:25:39;2.27;;;1.40;;
483;SDS011;228;48.922;12.198;2022-11-21T10:28:18;1.30;;;1.20;;
483;SDS011;228;48.922;12.198;2022-11-21T10:30:53;1.37;;;1.23;;
483;SDS011;228;48.922;12.198;2022-11-21T10:33:26;4.10;;;1.50;;
483;SDS011;228;48.922;12.198;2022-11-21T10:35:58;1.60;;;1.50;;
483;SDS011;228;48.922;12.198;2022-11-21T10:38:39;2.90;;;1.23;;
483;SDS011;228;48.922;12.198;2022-11-21T10:52:32;2.20;;;1.30;;
483;SDS011;228;48.922;12.198;2022-11-21T10:55:20;2.77;;;1.27;;
483;SDS011;228;48.922;12.198;2022-11-21T10:57:47;2.67;;;1.30;;
483;SDS011;228;48.922;12.198;2022-11-21T11:00:19;1.20;;;1.10;;
483;SDS011;228;48.922;12.198;2022-11-21T11:05:32;2.33;;;1.50;;
483;SDS011;228;48.922;12.198;2022-11-21T11:08:07;8.00;;;1.40;;
483;SDS011;228;48.922;12.198;2022-11-21T11:10:37;4.03;;;2.17;;
483;SDS011;228;48.922;12.198;2022-11-21T11:13:16;2.23;;;1.77;;
483;SDS011;228;48.922;12.198;2022-11-21T11:16:14;2.40;;;1.90;;
483;SDS011;228;48.922;12.198;2022-11-21T11:18:54;3.47;;;2.53;;
483;SDS011;228;48.922;12.198;2022-11-21T11:29:21;2.53;;;1.87;;
483;SDS011;228;48.922;12.198;2022-11-21T11:37:19;2.57;;;1.40;;
483;SDS011;228;48.922;12.198;2022-11-21T11:40:09;3.10;;;2.10;;
483;SDS011;228;48.922;12.198;2022-11-21T11:46:17;5.03;;;1.90;;
483;SDS011;228;48.922;12.198;2022-11-21T11:49:50;1.50;;;1.40;;
483;SDS011;228;48.922;12.198;2022-11-21T11:58:06;3.27;;;2.07;;
483;SDS011;228;48.922;12.198;2022-11-21T12:00:45;2.97;;;2.63;;
483;SDS011;228;48.922;12.198;2022-11-21T12:03:20;2.20;;;1.80;;
483;SDS011;228;48.922;12.198;2022-11-21T12:06:02;2.27;;;1.20;;
483;SDS011;228;48.922;12.198;2022-11-21T12:08:57;3.80;;;2.20;;
483;SDS011;228;48.922;12.198;2022-11-21T12:23:17;1.33;;;1.20;;
483;SDS011;228;48.922;12.198;2022-11-21T12:31:49;2.40;;;1.87;;
483;SDS011;228;48.922;12.198;2022-11-21T12:39:59;4.07;;;3.10;;
483;SDS011;228;48.922;12.198;2022-11-21T12:45:43;3.07;;;1.90;;
483;SDS011;228;48.922;12.198;2022-11-21T13:00:41;1.57;;;1.43;;
483;SDS011;228;48.922;12.198;2022-11-21T13:03:48;1.80;;;1.33;;
483;SDS011;228;48.922;12.198;2022-11-21T13:06:36;2.17;;;1.07;;
483;SDS011;228;48.922;12.198;2022-11-21T13:09:10;2.40;;;0.90;;
483;SDS011;228;48.922;12.198;2022-11-21T13:22:58;0.60;;;0.60;;
483;SDS011;228;48.922;12.198;2022-11-21T13:28:42;1.50;;;1.27;;
483;SDS011;228;48.922;12.198;2022-11-21T13:30:52;1.60;;;1.50;;
483;SDS011;228;48.922;12.198;2022-11-21T13:47:01;1.60;;;1.10;;
483;SDS011;228;48.922;12.198;2022-11-21T13:55:47;1.73;;;1.20;;
483;SDS011;228;48.922;12.198;2022-11-21T13:58:57;1.40;;;1.23;;
483;SDS011;228;48.922;12.198;2022-11-21T14:06:54;1.20;;;1.10;;
483;SDS011;228;48.922;12.198;2022-11-21T14:12:04;1.40;;;1.30;;
483;SDS011;228;48.922;12.198;2022-11-21T14:14:52;1.20;;;1.10;;
483;SDS011;228;48.922;12.198;2022-11-21T14:20:23;1.77;;;1.60;;
483;SDS011;228;48.922;12.198;2022-11-21T14:25:49;2.17;;;1.33;;
483;SDS011;228;48.922;12.198;2022-11-21T14:28:28;1.43;;;1.00;;
483;SDS011;228;48.922;12.198;2022-11-21T14:33:30;1.60;;;0.93;;
483;SDS011;228;48.922;12.198;2022-11-21T14:38:28;1.00;;;0.90;;
483;SDS011;228;48.922;12.198;2022-11-21T14:43:48;1.53;;;1.03;;
483;SDS011;228;48.922;12.198;2022-11-21T14:46:24;1.67;;;1.07;;
483;SDS011;228;48.922;12.198;2022-11-21T14:48:56;1.50;;;1.30;;
483;SDS011;228;48.922;12.198;2022-11-21T14:52:03;1.00;;;1.00;;
483;SDS011;228;48.922;12.198;2022-11-21T14:54:42;1.17;;;1.00;;
483;SDS011;228;48.922;12.198;2022-11-21T14:57:22;0.70;;;0.70;;
483;SDS011;228;48.922;12.198;2022-11-21T14:59:52;1.93;;;0.87;;
483;SDS011;228;48.922;12.198;2022-11-21T15:02:21;1.60;;;1.03;;
483;SDS011;228;48.922;12.198;2022-11-21T15:04:51;2.43;;;1.53;;
483;SDS011;228;48.922;12.198;2022-11-21T15:09:49;3.27;;;1.80;;
483;SDS011;228;48.922;12.198;2022-11-21T15:14:59;2.30;;;1.23;;
483;SDS011;228;48.922;12.198;2022-11-21T15:17:37;2.93;;;1.37;;
483;SDS011;228;48.922;12.198;2022-11-21T15:22:39;2.53;;;1.77;;
483;SDS011;228;48.922;12.198;2022-11-21T15:27:41;3.33;;;2.30;;
483;SDS011;228;48.922;12.198;2022-11-21T15:30:30;4.00;;;2.50;;
483;SDS011;228;48.922;12.198;2022-11-21T15:32:58;20.00;;;10.30;;
483;SDS011;228;48.922;12.198;2022-11-21T15:43:39;8.23;;;5.40;;
483;SDS011;228;48.922;12.198;2022-11-21T15:46:12;12.47;;;5.93;;
483;SDS011;228;48.922;12.198;2022-11-21T15:48:42;9.67;;;6.40;;
483;SDS011;228;48.922;12.198;2022-11-21T15:51:14;10.23;;;6.40;;
483;SDS011;228;48.922;12.198;2022-11-21T15:53:41;27.10;;;9.50;;
483;SDS011;228;48.922;12.198;2022-11-21T15:56:09;15.67;;;9.37;;
483;SDS011;228;48.922;12.198;2022-11-21T15:58:38;13.73;;;8.67;;
483;SDS011;228;48.922;12.198;2022-11-21T16:01:10;14.37;;;8.43;;
483;SDS011;228;48.922;12.198;2022-11-21T16:03:42;11.47;;;7.70;;
483;SDS011;228;48.922;12.198;2022-11-21T16:06:09;14.30;;;8.30;;
483;SDS011;228;48.922;12.198;2022-11-21T16:08:36;16.90;;;8.63;;
483;SDS011;228;48.922;12.198;2022-11-21T16:11:02;12.60;;;8.10;;
483;SDS011;228;48.922;12.198;2022-11-21T16:13:28;13.43;;;7.60;;
483;SDS011;228;48.922;12.198;2022-11-21T16:15:54;20.73;;;10.20;;
483;SDS011;228;48.922;12.198;2022-11-21T16:18:20;24.57;;;12.90;;
483;SDS011;228;48.922;12.198;2022-11-21T16:20:46;49.67;;;23.43;;
483;SDS011;228;48.922;12.198;2022-11-21T16:23:12;57.60;;;26.57;;
483;SDS011;228;48.922;12.198;2022-11-21T16:25:49;33.63;;;15.80;;
483;SDS011;228;48.922;12.198;2022-11-21T16:28:19;22.27;;;9.73;;
483;SDS011;228;48.922;12.198;2022-11-21T16:30:45;15.00;;;8.70;;
483;SDS011;228;48.922;12.198;2022-11-21T16:33:11;12.70;;;7.87;;
483;SDS011;228;48.922;12.198;2022-11-21T16:35:37;10.50;;;7.67;;
483;SDS011;228;48.922;12.198;2022-11-21T16:38:10;13.77;;;8.40;;
483;SDS011;228;48.922;12.198;2022-11-21T16:40:36;13.63;;;7.87;;
483;SDS011;228;48.922;12.198;2022-11-21T16:43:11;11.97;;;7.90;;
483;SDS011;228;48.922;12.198;2022-11-21T16:45:37;15.30;;;10.60;;
483;SDS011;228;48.922;12.198;2022-11-21T16:48:04;20.80;;;12.50;;
483;SDS011;228;48.922;12.198;2022-11-21T16:50:31;16.07;;;11.53;;
483;SDS011;228;48.922;12.198;2022-11-21T16:52:57;16.70;;;11.17;;
483;SDS011;228;48.922;12.198;2022-11-21T16:55:25;23.47;;;16.23;;
483;SDS011;228;48.922;12.198;2022-11-21T16:57:52;27.30;;;17.33;;
483;SDS011;228;48.922;12.198;2022-11-21T17:00:19;22.83;;;16.10;;
483;SDS011;228;48.922;12.198;2022-11-21T17:02:45;23.43;;;14.00;;
483;SDS011;228;48.922;12.198;2022-11-21T17:05:11;17.83;;;12.40;;
483;SDS011;228;48.922;12.198;2022-11-21T17:07:37;24.07;;;13.30;;
483;SDS011;228;48.922;12.198;2022-11-21T17:10:03;93.73;;;42.03;;
483;SDS011;228;48.922;12.198;2022-11-21T17:12:33;79.97;;;40.03;;
483;SDS011;228;48.922;12.198;2022-11-21T17:15:05;92.93;;;42.27;;
483;SDS011;228;48.922;12.198;2022-11-21T17:17:35;29.50;;;15.63;;
483;SDS011;228;48.922;12.198;2022-11-21T17:20:01;18.33;;;11.00;;
483;SDS011;228;48.922;12.198;2022-11-21T17:22:29;28.43;;;16.83;;
483;SDS011;228;48.922;12.198;2022-11-21T17:24:55;18.67;;;13.13;;
483;SDS011;228;48.922;12.198;2022-11-21T17:27:21;7.87;;;6.20;;
483;SDS011;228;48.922;12.198;2022-11-21T17:29:48;8.03;;;5.63;;
483;SDS011;228;48.922;12.198;2022-11-21T17:32:15;8.40;;;5.73;;
483;SDS011;228;48.922;12.198;2022-11-21T17:34:41;14.13;;;10.43;;
483;SDS011;228;48.922;12.198;2022-11-21T17:37:08;11.23;;;7.20;;
483;SDS011;228;48.922;12.198;2022-11-21T17:39:34;19.03;;;11.90;;
483;SDS011;228;48.922;12.198;2022-11-21T17:42:00;14.27;;;7.67;;
483;SDS011;228;48.922;12.198;2022-11-21T17:44:27;39.83;;;21.23;;
483;SDS011;228;48.922;12.198;2022-11-21T17:46:53;36.67;;;18.53;;
483;SDS011;228;48.922;12.198;2022-11-21T17:49:19;26.50;;;15.00;;
483;SDS011;228;48.922;12.198;2022-11-21T17:51:46;18.63;;;11.67;;
483;SDS011;228;48.922;12.198;2022-11-21T17:54:12;21.60;;;12.77;;
483;SDS011;228;48.922;12.198;2022-11-21T17:56:38;26.87;;;13.77;;
483;SDS011;228;48.922;12.198;2022-11-21T17:59:05;11.97;;;7.83;;
483;SDS011;228;48.922;12.198;2022-11-21T18:01:32;9.67;;;6.03;;
483;SDS011;228;48.922;12.198;2022-11-21T18:03:59;9.63;;;6.17;;
483;SDS011;228;48.922;12.198;2022-11-21T18:06:29;5.83;;;4.53;;
483;SDS011;228;48.922;12.198;2022-11-21T18:08:59;8.97;;;4.77;;
483;SDS011;228;48.922;12.198;2022-11-21T18:11:30;7.33;;;4.17;;
483;SDS011;228;48.922;12.198;2022-11-21T18:13:59;7.00;;;4.27;;
483;SDS011;228;48.922;12.198;2022-11-21T18:16:26;5.57;;;4.57;;
483;SDS011;228;48.922;12.198;2022-11-21T18:18:55;7.20;;;4.30;;
483;SDS011;228;48.922;12.198;2022-11-21T18:21:25;8.27;;;4.00;;
483;SDS011;228;48.922;12.198;2022-11-21T18:23:57;7.00;;;4.03;;
483;SDS011;228;48.922;12.198;2022-11-21T18:26:27;6.87;;;4.80;;
483;SDS011;228;48.922;12.198;2022-11-21T18:28:56;9.67;;;6.43;;
483;SDS011;228;48.922;12.198;2022-11-21T18:31:26;10.57;;;6.23;;
483;SDS011;228;48.922;12.198;2022-11-21T18:33:54;8.20;;;6.00;;
483;SDS011;228;48.922;12.198;2022-11-21T18:36:24;8.87;;;6.13;;
483;SDS011;228;48.922;12.198;2022-11-21T18:38:52;8.67;;;6.50;;
483;SDS011;228;48.922;12.198;2022-11-21T18:41:20;7.13;;;5.33;;
483;SDS011;228;48.922;12.198;2022-11-21T18:43:57;8.63;;;5.87;;
483;SDS011;228;48.922;12.198;2022-11-21T18:46:26;11.10;;;5.00;;
483;SDS011;228;48.922;12.198;2022-11-21T18:48:54;8.83;;;5.03;;
483;SDS011;228;48.922;12.198;2022-11-21T18:51:24;7.00;;;4.33;;